Weather observations for the past three days for
Panola County Airport-Sharpe Field
Metric (Imperial)
Date Time (cdt) Wind (kph) Vis. (km) Weather Sky Cond. Temperature (ºC) Relative Humidity Wind Chill (°C) Heat Index (°C) Pressure Precipitation (cm)
Air Dwpt 6 hour altimeter (cm) sea level (mb) 1 hr 3 hr 6 hr
Max. Min.
07 13:55 N 15 16.09 Fair CLR 20.6 11 54% 76.3 0.0
07 13:35 N 11 16.09 Fair CLR 20.5 10.8 54% 76.3 0.0
07 13:15 N 13 16.09 Fair CLR 20.2 10.5 54% 76.33 0.0
07 12:55 N 9 16.09 Fair CLR 19.4 10.2 20.2 11.3 55% 76.33 0.0
07 12:35 NE 17 16.09 Fair CLR 19.1 9.9 55% 76.33 0.0
07 12:15 N 13 16.09 Fair CLR 19 9.4 54% 76.35 0.0
07 11:55 N 17 16.09 Fair CLR 19.7 9.4 52% 76.38 0.0
07 11:35 N 13 16.09 Fair CLR 19 8.9 52% 76.4 0.0
07 11:15 NE 9 16.09 Fair CLR 18.9 9.4 54% 76.4 0.0
07 10:55 N 15 16.09 Fair CLR 18.1 9.5 57% 76.4 0.0
07 10:35 N 15 16.09 Fair CLR 17.8 9.3 58% 76.43 0.0
07 10:15 N 7 16.09 Fair CLR 17 9.6 62% 76.45 0.0
07 09:55 N 15 16.09 Fair CLR 16.2 9.8 66% 76.43 0.0
07 09:35 N 11 16.09 Fair CLR 15.2 9.8 70% 76.45 0.0
07 09:15 N 9 16.09 Fair CLR 14.4 9.9 75% 76.43 0.0
07 08:55 N 7 16.09 Fair CLR 13.5 10.2 81% 76.45 0.0
07 08:35 N 11 16.09 Fair CLR 12.6 10.1 85% 76.4 0.0
07 08:15 N 13 16.09 Fair CLR 12.2 10 87% 76.4 0.0
07 07:55 NW 9 16.09 Fair CLR 11.9 9.9 88% 76.43 0.0
07 07:35 NW 9 16.09 Fair CLR 11.8 9.9 88% 76.43 0.0
07 07:15 NW 7 16.09 Fair CLR 11.5 9.6 88% 76.38 0.0
07 06:55 N 6 16.09 Fair CLR 11.3 9.5 12.9 11.2 89% 76.35 0.0
07 06:35 N 6 G 63 16.09 Fair CLR 11.3 9.3 88% 76.33 0.0
07 06:15 N 7 16.09 Fair CLR 11.6 9.1 85% 76.3 0.0
07 05:55 N 9 16.09 Mostly Cloudy BKN029 12 8.9 82% 76.28 0.0
07 05:35 N 9 16.09 Overcast OVC027 12.6 8.9 78% 76.23 0.0
07 05:15 N 9 16.09 Overcast OVC029 12.6 8.7 77% 76.2 0.0
07 04:55 Calm 16.09 Overcast OVC029 12.7 8.8 77% 76.2 0.0
07 04:35 NE 6 16.09 Overcast OVC029 12.9 8.6 75% 76.23 0.0
07 04:15 NE 9 16.09 Overcast OVC029 12.8 8.7 76% 76.2 0.0
07 03:55 NE 6 16.09 Overcast OVC029 12.8 8.9 77% 76.23 0.0
07 03:35 NE 6 16.09 Overcast OVC027 12.7 9 78% 76.2 0.0
07 03:15 N 9 16.09 Overcast OVC027 12.7 9.3 80% 76.23 0.0
07 02:55 N 7 16.09 Overcast OVC027 12.6 9.4 81% 76.23 0.0
07 02:35 N 6 16.09 Overcast OVC025 12.6 9.9 84% 76.25 0.0
07 02:15 N 7 16.09 Overcast OVC025 12.6 10.2 85% 76.28 0.0
07 01:55 N 7 16.09 Overcast OVC025 12.4 10.4 88% 76.25 0.0
07 01:35 N 11 16.09 Overcast SCT010 OVC023 12.4 10.5 88% 76.25 0.0
07 01:15 N 11 16.09 Overcast OVC010 12.3 10.7 90% 76.28 0.0
07 00:55 N 13 16.09 Overcast OVC008 12.2 10.8 15.8 12.2 91% 76.28 0.0
07 00:35 N 11 16.09 Overcast OVC008 12.3 11.1 92% 76.28 0.0
07 00:15 N 11 16.09 Overcast OVC008 12.4 11.2 92% 76.25 0.0
06 23:55 N 13 16.09 Overcast OVC008 12.5 11.4 93% 76.23 0.0
06 23:35 N 13 16.09 Overcast OVC008 12.5 11.5 94% 76.25 0.0
06 23:15 N 15 11.27 Fog/Mist BKN006 OVC009 12.6 11.9 96% 76.23 0.0
06 22:55 N 13 11.27 Fog/Mist OVC006 13.3 12.5 95% 76.23 0.0
06 22:35 N 13 8.05 Light Rain Fog/Mist OVC006 13.4 12.5 94% 76.17 0.0
06 22:15 N 11 8.05 Fog/Mist OVC008 13.8 12.8 94% 76.17 0.0
06 21:55 N 9 16.09 Overcast OVC008 14.1 12.6 91% 76.15 0.0
06 21:35 N 9 16.09 Overcast OVC008 14.1 12.7 91% 76.12 0.0
06 21:15 N 15 16.09 Overcast OVC008 14.2 12.8 91% 76.1 0.0
06 20:55 N 11 16.09 Overcast OVC008 14.4 12.8 90% 76.07 0.0
06 20:35 N 20 G 26 16.09 Overcast OVC010 14.6 12.9 90% 76.02 0.0
06 20:15 N 13 16.09 Overcast OVC010 14.9 13.1 89% 76 0.0
06 19:55 N 13 16.09 Overcast OVC010 15.2 13.3 89% 75.97 0.0
06 19:35 N 17 G 56 16.09 Overcast OVC010 15.4 13.4 88% 76 0.0
06 19:15 N 15 16.09 Overcast OVC012 15.6 13.4 87% 75.95 0.0
06 18:55 N 19 16.09 Overcast OVC012 15.8 13.5 23.3 15.8 86% 75.95 0.0
06 18:35 N 19 16.09 Overcast OVC012 16.1 13.6 85% 75.95 0.0
06 18:15 N 19 16.09 Overcast OVC012 16.8 14.3 85% 75.95 0.0
06 17:55 N 13 16.09 Overcast OVC012 17.4 14.7 84% 75.92 0.0
06 17:35 N 19 16.09 Overcast OVC014 18 15.2 84% 75.9 0.0
06 17:15 N 13 16.09 Overcast OVC014 18.4 15.4 83% 75.9 0.0
06 16:55 N 15 16.09 Mostly Cloudy BKN012 BKN060 19.4 15.7 79% 75.84 0.0
06 16:35 N 13 16.09 Overcast OVC012 19.1 15.8 81% 75.84 0.0
06 16:15 N 15 16.09 Overcast OVC010 18.5 15.9 85% 75.87 0.0
06 15:55 N 15 16.09 Overcast OVC008 18.2 16.1 88% 75.87 0.0
06 15:35 N 20 G 28 16.09 Overcast OVC012 19.8 17.2 85% 75.84 0.0
06 15:15 N 20 16.09 Overcast OVC014 21.3 17.8 81% 75.84 0.0
06 14:55 N 22 16.09 Overcast OVC016 22.5 18.2 77% 75.82 0.0
06 14:35 N 13 16.09 Overcast OVC016 23 18.3 75% 75.82 0.0
06 14:15 NE 11 16.09 Mostly Cloudy BKN014 22.8 18.1 75% 75.82 0.0
06 13:55 N 11 16.09 Partly Cloudy SCT012 SCT060 22 17.6 76% 75.84 0.0
06 13:35 E 7 16.09 Overcast OVC012 20.8 16.9 78% 75.87 0.0
06 13:15 N 11 16.09 Overcast OVC014 20.4 16.9 80% 75.95 0.0
06 12:55 N 15 16.09 Overcast OVC014 19.8 16.7 25.9 19.4 82% 75.95 0.0
06 12:35 NW 17 G 26 11.27 Overcast OVC014 19.5 17 86% 76 0.0
06 12:15 NW 20 16.09 Overcast BKN014 BKN018 OVC025 20.3 16.9 81% 76.02 0.0
06 11:55 NW 19 16.09 Overcast BKN014 OVC020 20.4 17.3 82% 76.02 0.0
06 11:35 NW 22 16.09 Overcast BKN019 BKN023 OVC029 21 17.5 81% 75.97 0.0
06 11:15 N 11 5.63 Mostly Cloudy with Haze BKN019 BKN028 BKN035 21.1 17.9 82% 75.95 0.0
06 10:55 NW 15 16.09 Mostly Cloudy SCT014 SCT023 BKN029 21.1 18.1 83% 75.9 0.0
06 10:35 N 15 16.09 Overcast BKN014 BKN018 OVC029 20.5 18.1 86% 75.92 0.0
06 10:15 N 20 G 31 11.27 Overcast BKN014 BKN022 OVC034 21.4 19.1 87% 75.87 0.0
06 09:55 SW 9 16.09 Overcast BKN016 BKN025 OVC038 25.8 22.6 83% 27 75.84 0.0
06 09:35 S 7 16.09 Overcast OVC014 25.2 22.5 85% 26 75.84 0.0
06 09:15 S 9 16.09 Overcast OVC012 25 22.4 86% 26 75.82 0.0
06 08:55 S 13 16.09 Overcast BKN012 BKN022 OVC060 24.8 22.3 86% 25 75.82 0.0
06 08:35 S 11 11.27 Overcast SCT022 OVC060 24.4 22.3 88% 24 75.82 0.0
06 08:15 S 13 11.27 Overcast SCT011 SCT016 OVC060 24.1 22.2 89% 24 75.82 0.0
06 07:55 S 9 11.27 Overcast OVC011 24 22.3 90% 24 75.82 0.0
06 07:35 S 9 11.27 Overcast OVC011 23.8 22.1 90% 75.79 0.0
06 07:15 S 11 11.27 Overcast OVC013 23.7 22 90% 75.79 0.0
06 06:55 S 11 11.27 Overcast OVC013 23.6 22 24.6 23.1 91% 75.74 0.0
06 06:35 S 9 11.27 Overcast BKN013 OVC047 23.5 21.9 91% 75.72 0.0
06 06:15 S 11 16.09 Overcast BKN017 BKN023 OVC047 23.3 21.8 91% 75.69 0.0
06 05:55 S 9 16.09 Overcast SCT013 OVC021 23.4 21.9 91% 75.69 0.0
06 05:35 S 11 16.09 Overcast BKN012 OVC021 23.2 21.8 92% 75.69 0.0
06 05:15 S 13 16.09 Overcast OVC012 23.5 21.8 90% 75.69 0.0
06 04:55 S 11 16.09 Overcast OVC012 23.5 21.8 90% 75.67 0.0
06 04:35 S 15 16.09 Overcast OVC012 23.5 21.8 90% 75.67 0.0
06 04:15 S 11 16.09 Overcast OVC014 23.4 21.7 90% 75.67 0.0
06 03:55 S 13 16.09 Overcast OVC014 23.5 21.6 89% 75.67 0.0
06 03:35 S 17 16.09 Overcast OVC014 23.7 21.6 88% 75.64 0.0
06 03:15 S 15 16.09 Overcast OVC016 23.8 21.6 88% 75.64 0.0
06 02:55 S 15 G 26 16.09 Mostly Cloudy BKN016 24.1 21.7 87% 24 75.64 0.0
06 02:35 S 17 16.09 Mostly Cloudy BKN016 23.8 21.6 88% 75.64 0.0
06 02:15 S 15 16.09 Partly Cloudy SCT016 23.9 21.7 88% 24 75.64 0.0
06 01:55 S 19 16.09 Partly Cloudy SCT050 24.1 21.6 86% 24 75.67 0.0
06 01:35 S 17 16.09 Overcast SCT018 SCT028 OVC050 24.4 21.7 85% 25 75.72 0.0
06 01:15 S 19 G 28 16.09 Overcast BKN018 BKN028 OVC050 24.4 21.7 85% 25 75.69 0.0
06 00:55 S 19 16.09 Overcast OVC018 24.6 21.7 27.5 24.1 84% 25 75.69 0.0
06 00:35 S 17 16.09 Overcast OVC018 24.7 21.8 84% 25 75.69 0.0
06 00:15 S 19 16.09 Overcast OVC018 24.6 21.7 84% 25 75.69 0.0
05 23:55 S 13 G 28 16.09 Mostly Cloudy BKN018 24.4 21.7 85% 25 75.64 0.0
05 23:35 S 19 G 26 16.09 Partly Cloudy SCT018 24.3 21.7 85% 24 75.62 0.0
05 23:15 S 19 G 28 16.09 Partly Cloudy SCT018 SCT049 24.2 21.8 87% 24 75.59 0.0
05 22:55 S 15 16.09 Partly Cloudy SCT018 SCT049 24.4 22 87% 25 75.62 0.0
05 22:35 S 15 16.09 Partly Cloudy SCT044 SCT049 24.6 22 86% 25 75.59 0.0
05 22:15 S 19 16.09 Overcast OVC049 24.9 22.1 85% 26 75.59 0.0
05 21:55 S 19 16.09 Mostly Cloudy BKN047 25 22.1 84% 26 75.59 0.0
05 21:35 S 15 16.09 Overcast SCT025 SCT030 OVC047 25.2 22.1 83% 26 75.57 0.0
05 21:15 S 11 16.09 Overcast SCT023 BKN030 OVC047 25.3 22.1 83% 26 75.54 0.0
05 20:55 S 11 16.09 Overcast SCT037 OVC047 25.3 22 82% 26 75.54 0.0
05 20:35 S 11 11.27 Overcast SCT037 OVC047 25.7 21.9 80% 27 75.51 0.0
05 20:15 S 9 16.09 Overcast SCT032 OVC043 25.7 21.8 79% 27 75.46 0.0
05 19:55 SE 7 16.09 Mostly Cloudy BKN041 25.9 21.7 78% 27 75.46 0.0
05 19:35 S 13 16.09 Partly Cloudy SCT041 26.8 21.5 73% 29 75.46 0.0
05 19:15 S 13 16.09 Partly Cloudy SCT044 27.3 21.5 71% 29 75.44 0.0
05 18:55 S 17 16.09 Partly Cloudy SCT044 27.5 21.5 29.8 26.1 70% 30 75.44 0.0
05 18:35 S 15 16.09 Partly Cloudy SCT046 28.2 21.4 67% 31 75.44 0.0
05 18:15 S 20 16.09 Mostly Cloudy SCT040 BKN046 28.4 21.5 66% 31 75.44 0.0
05 17:55 S 19 16.09 Mostly Cloudy BKN038 BKN046 28.6 21.5 65% 31 75.41 0.0
05 17:35 S 20 16.09 Mostly Cloudy BKN037 BKN044 29 21.3 63% 32 75.44 0.0
05 17:15 S 20 G 28 16.09 Overcast BKN037 OVC044 29.2 21.1 62% 32 75.44 0.0
05 16:55 S 20 G 28 16.09 Mostly Cloudy BKN039 BKN046 29.4 21.5 63% 32 75.44 0.0
05 16:35 S 26 16.09 Overcast SCT036 OVC043 29.2 21.4 63% 32 75.44 0.0
05 16:15 S 22 16.09 Mostly Cloudy BKN038 28.6 21.3 65% 31 75.46 0.0
05 15:55 S 19 G 35 16.09 Mostly Cloudy BKN036 BKN042 29.1 21.3 63% 32 75.49 0.0
05 15:35 S 22 G 35 16.09 Mostly Cloudy SCT034 BKN042 28.6 21.1 64% 31 75.49 0.0
05 15:15 S 22 G 37 16.09 Overcast OVC039 28.7 21.1 64% 31 75.51 0.0
05 14:55 S 24 G 35 16.09 Overcast BKN033 OVC039 28.1 20.9 65% 30 75.51 0.0
05 14:35 SW 28 G 39 16.09 Overcast OVC033 27.6 20.9 67% 30 75.54 0.0
05 14:15 SW 17 G 43 16.09 Overcast BKN030 OVC036 27.7 21 67% 30 75.54 0.0
05 13:55 S 22 G 33 16.09 Overcast BKN030 OVC034 27.2 20.7 68% 29 75.57 0.0
05 13:35 S 26 G 37 16.09 Overcast BKN029 OVC034 26.9 20.7 69% 29 75.57 0.0
05 13:15 S 24 G 37 16.09 Overcast OVC029 26.6 20.5 69% 28 75.59 0.0
05 12:55 S 22 G 44 16.09 Overcast BKN029 OVC035 26.2 20.4 26.5 21.1 70% 28 75.59 0.0
05 12:35 S 22 G 35 16.09 Overcast BKN025 OVC030 26.1 20.7 72% 28 75.62 0.0
05 12:15 S 20 G 37 16.09 Overcast OVC023 25.3 20.4 74% 26 75.62 0.0
05 11:55 S 24 G 35 16.09 Overcast OVC021 25 20.4 76% 26 75.64 0.0
05 11:35 S 20 G 39 16.09 Overcast BKN019 OVC026 24.6 20.3 77% 25 75.64 0.0
05 11:15 S 22 G 31 16.09 Overcast BKN019 OVC027 24 20.1 79% 24 75.64 0.0
05 10:55 S 20 G 41 16.09 Overcast OVC017 23.2 19.7 81% 75.64 0.0
05 10:35 S 15 G 33 16.09 Overcast OVC019 23.3 19.7 80% 75.64 0.0
05 10:15 S 11 G 35 16.09 Overcast OVC019 22.8 19.4 81% 75.62 0.0
05 09:55 S 24 G 35 16.09 Overcast OVC015 22.6 19.5 83% 75.64 0.0
05 09:35 S 24 16.09 Overcast OVC015 22.2 19.4 84% 75.64 0.0
05 09:15 S 22 G 31 16.09 Overcast OVC015 22 19.2 84% 75.64 0.0
05 08:55 S 20 16.09 Overcast OVC015 21.8 19.2 85% 75.64 0.0
05 08:35 S 20 16.09 Overcast OVC015 21.6 19 85% 75.64 0.0
05 08:15 S 20 G 31 16.09 Overcast OVC015 21.6 18.9 85% 75.64 0.0
05 07:55 S 17 16.09 Overcast OVC015 21.4 18.6 84% 75.64 0.0
05 07:35 S 17 G 30 16.09 Overcast OVC015 21.3 18.5 84% 75.62 0.0
05 07:15 S 19 16.09 Overcast OVC015 21.2 18.4 84% 75.59 0.0
05 06:55 S 19 G 28 16.09 Overcast OVC015 21.1 18.4 21.1 19.1 85% 75.59 0.0
05 06:35 S 19 G 30 16.09 Overcast OVC015 20.9 18.3 85% 75.57 0.0
05 06:15 S 19 16.09 Overcast OVC015 20.7 18.2 86% 75.57 0.0
05 05:55 S 17 16.09 Overcast OVC015 20.3 18 87% 75.57 0.0
05 05:35 S 13 16.09 Overcast OVC015 20 17.8 87% 75.54 0.0
05 05:15 S 15 16.09 Overcast BKN015 OVC023 19.9 17.7 87% 75.54 0.0
05 04:55 S 20 16.09 Overcast BKN017 OVC023 19.6 17.5 88% 75.57 0.0
05 04:35 S 15 16.09 Mostly Cloudy BKN019 BKN024 19.5 17.3 87% 75.59 0.0
05 04:15 S 11 16.09 Mostly Cloudy BKN023 19.2 17 87% 75.62 0.0
05 03:55 S 15 16.09 Partly Cloudy SCT023 19.4 16.9 86% 75.62 0.0
05 03:35 S 17 16.09 Fair CLR 19.5 16.9 85% 75.62 0.0
05 03:15 S 15 16.09 Fair CLR 19.7 16.8 83% 75.64 0.0
05 02:55 S 17 16.09 Fair CLR 19.6 16.7 83% 75.64 0.0
05 02:35 S 17 16.09 Fair CLR 19.8 16.6 82% 75.67 0.0
05 02:15 SE 7 16.09 Fair CLR 19.7 16.5 82% 75.67 0.0
05 01:55 S 17 16.09 Fair CLR 19.9 16.5 81% 75.69 0.0
05 01:35 S 19 16.09 Fair CLR 20.1 16.4 79% 75.69 0.0
05 01:15 S 15 16.09 Fair CLR 20.2 16.3 78% 75.72 0.0
05 00:55 S 15 16.09 Fair CLR 20.4 16.2 25.5 20.4 77% 75.72 0.0
05 00:35 S 20 16.09 Fair CLR 20.6 16 75% 75.72 0.0
05 00:15 S 17 16.09 Fair CLR 20.8 15.9 74% 75.72 0.0
04 23:55 S 20 16.09 Fair CLR 20.8 15.8 73% 75.72 0.0
04 23:35 S 17 16.09 Fair CLR 20.8 15.8 73% 75.74 0.0
04 23:15 S 15 16.09 Fair CLR 20.7 15.8 74% 75.74 0.0
04 22:55 S 13 G 31 16.09 Fair CLR 21.3 15.7 71% 75.74 0.0
04 22:35 S 15 16.09 Fair CLR 21.2 15.6 71% 75.74 0.0
04 22:15 S 17 16.09 Fair CLR 21.4 15.6 70% 75.74 0.0
04 21:55 S 11 16.09 Fair CLR 21.3 15.6 70% 75.74 0.0
04 21:35 S 13 16.09 Fair CLR 21.4 15.4 69% 75.72 0.0
04 21:15 S 11 16.09 Fair CLR 21.1 15.1 69% 75.72 0.0
04 20:55 S 7 16.09 Fair CLR 21.4 14.8 66% 75.69 0.0
04 20:35 SE 9 16.09 Fair CLR 22.5 14.5 61% 75.67 0.0
04 20:15 S 13 16.09 Fair CLR 22.8 14.5 60% 75.67 0.0
04 19:55 S 11 16.09 Fair CLR 23.2 14.5 58% 75.67 0.0
04 19:35 SE 11 16.09 Fair CLR 23.7 14.6 57% 75.67 0.0
04 19:15 S 17 16.09 Fair CLR 24.6 14.3 53% 26 75.72 0.0
04 18:55 S 11 16.09 Fair CLR 25.7 14.2 27.6 24.6 49% 26 75.72 0.0
04 18:35 S 19 G 28 16.09 Fair CLR 25.9 13.9 48% 26 75.72 0.0
04 18:15 S 19 G 28 16.09 Fair CLR 26.5 13.7 45% 27 75.74 0.0
04 17:55 S 17 G 31 16.09 Fair CLR 26.7 12.5 41% 27 75.74 0.0
04 17:35 S 15 16.09 Fair CLR 26.8 12.5 41% 27 75.77 0.0
04 17:15 S 19 G 28 16.09 Fair CLR 26.7 11.8 40% 27 75.79 0.0
04 16:55 S 15 G 30 16.09 Fair CLR 26.6 11.9 40% 27 75.79 0.0
04 16:35 S 22 G 30 16.09 Fair CLR 27 12.2 40% 27 75.82 0.0
04 16:15 S 13 16.09 Fair CLR 26.7 12.6 42% 27 75.87 0.0
04 15:55 S 19 G 28 16.09 Fair CLR 27.1 12.5 40% 27 75.9 0.0
04 15:35 S 17 16.09 Fair CLR 26.6 12.3 41% 27 75.9 0.0
04 15:15 S 20 16.09 Fair CLR 26.4 12.7 43% 27 75.95 0.0
04 14:55 S 22 G 31 16.09 Fair CLR 26.1 12.1 42% 26 75.97 0.0
04 14:35 S 20 16.09 Fair CLR 26.1 12.4 43% 26 76 0.0
04 14:15 S 20 G 28 16.09 Fair CLR 25.5 12.2 44% 26 76 0.0
Date Time (cdt) Wind (kph) Vis. (km) Weather Sky Cond. Air Dwpt Max. Min. Relative Humidity Wind Chill (°C) Heat Index (°C) altimeter (cm) sea level (mb) 1 hr 3 hr 6 hr
6 hour
Temperature (ºC) Pressure Precipitation (cm)